Time;durP1;ratioP1;P1;durP2;ratioP2;P2;SDS_P1;SDS_P2;PMS_P1;PMS_P2;Temp;Humidity;BMP_temperature;BMP_pressure;BME280_temperature;BME280_humidity;BME280_pressure;Samples;Min_cycle;Max_cycle;Signal;HPM_P1;HPM_P2
2023/11/29 00:02:23;;;;;;;9.53;7.33;;;6.40;99.90;;;;;;5005912;28;20188;-86
2023/11/29 00:04:49;;;;;;;7.50;6.70;;;6.20;99.90;;;;;;5002463;28;20460;-86
2023/11/29 00:07:16;;;;;;;8.23;6.37;;;6.10;99.90;;;;;;5036881;28;20178;-86
2023/11/29 00:09:41;;;;;;;8.67;7.07;;;6.10;99.90;;;;;;5055974;28;20463;-86
2023/11/29 00:12:07;;;;;;;12.90;6.67;;;6.10;99.90;;;;;;5002606;28;20536;-86
2023/11/29 00:14:33;;;;;;;9.00;6.83;;;6.30;99.90;;;;;;5033913;28;20440;-87
2023/11/29 00:16:59;;;;;;;7.63;6.20;;;6.30;99.90;;;;;;5021341;28;20510;-87
2023/11/29 00:19:25;;;;;;;7.67;6.13;;;6.50;99.90;;;;;;5021353;28;20440;-88
2023/11/29 00:21:51;;;;;;;8.83;6.67;;;6.40;99.90;;;;;;5005219;28;20541;-85
2023/11/29 00:24:17;;;;;;;8.23;7.20;;;6.10;99.90;;;;;;5019806;28;20449;-86
2023/11/29 00:26:42;;;;;;;8.63;6.20;;;6.10;99.90;;;;;;5018391;28;20441;-87
2023/11/29 00:29:08;;;;;;;8.48;6.38;;;6.60;99.90;;;;;;5005270;28;20474;-87
2023/11/29 00:31:35;;;;;;;8.67;6.83;;;5.90;99.90;;;;;;5005906;28;20186;-87
2023/11/29 00:34:01;;;;;;;9.33;6.70;;;6.80;99.90;;;;;;5021548;28;20424;-87
2023/11/29 00:36:27;;;;;;;7.40;6.50;;;6.80;99.90;;;;;;5004962;28;20241;-86
2023/11/29 00:38:53;;;;;;;8.63;7.30;;;6.30;99.90;;;;;;5005357;28;20892;-86
2023/11/29 00:41:19;;;;;;;8.37;7.07;;;6.30;99.90;;;;;;5017772;28;20467;-87
2023/11/29 00:43:45;;;;;;;7.60;6.50;;;6.90;99.90;;;;;;5021209;28;20739;-87
2023/11/29 00:46:14;;;;;;;8.90;6.27;;;6.10;99.90;;;;;;5021335;28;20437;-86
2023/11/29 00:48:40;;;;;;;9.03;6.50;;;6.10;99.90;;;;;;5037610;28;20529;-85
2023/11/29 00:51:08;;;;;;;7.50;5.93;;;6.10;99.90;;;;;;5022086;28;20516;-88
2023/11/29 00:53:34;;;;;;;8.50;6.77;;;6.40;99.90;;;;;;5021374;28;20977;-87
2023/11/29 00:56:00;;;;;;;9.10;6.73;;;6.50;99.90;;;;;;5004663;28;20448;-86
2023/11/29 00:58:26;;;;;;;7.50;6.30;;;6.00;99.90;;;;;;5019966;28;20977;-87
2023/11/29 01:00:52;;;;;;;9.70;6.50;;;6.90;99.90;;;;;;5004513;28;20638;-86
2023/11/29 01:03:18;;;;;;;8.13;6.67;;;7.40;99.90;;;;;;5001251;28;20444;-87
2023/11/29 01:05:46;;;;;;;7.57;5.90;;;6.10;99.90;;;;;;5037233;28;21207;-86
2023/11/29 01:08:12;;;;;;;6.50;5.20;;;6.70;99.90;;;;;;5017696;28;20804;-86
2023/11/29 01:10:39;;;;;;;6.60;5.70;;;6.90;99.90;;;;;;5001392;28;20425;-86
2023/11/29 01:13:06;;;;;;;8.80;6.03;;;7.30;99.90;;;;;;5046305;28;20421;-86
2023/11/29 01:15:32;;;;;;;7.93;5.60;;;6.10;99.90;;;;;;5001265;28;20447;-86
2023/11/29 01:17:58;;;;;;;9.07;7.10;;;6.00;99.90;;;;;;5020691;28;20215;-87
2023/11/29 01:20:24;;;;;;;6.93;6.05;;;7.20;99.90;;;;;;5004249;28;21268;-87
2023/11/29 01:22:50;;;;;;;7.87;6.63;;;7.00;99.90;;;;;;5001279;28;20206;-87
2023/11/29 01:25:16;;;;;;;7.10;5.90;;;6.10;99.90;;;;;;5000920;28;20958;-87
2023/11/29 01:27:42;;;;;;;7.17;5.67;;;6.70;99.90;;;;;;5017405;28;20479;-87
2023/11/29 01:30:09;;;;;;;6.83;6.13;;;6.20;99.90;;;;;;5001178;28;20438;-88
2023/11/29 01:32:35;;;;;;;6.33;5.43;;;6.20;99.90;;;;;;5004076;28;20444;-88
2023/11/29 01:35:01;;;;;;;7.93;6.23;;;6.70;99.90;;;;;;5036432;28;20419;-86
2023/11/29 01:37:27;;;;;;;5.73;5.07;;;6.10;99.90;;;;;;5019976;28;20423;-86
2023/11/29 01:39:58;;;;;;;6.97;6.07;;;6.10;99.90;;;;;;5004582;28;20825;-87
2023/11/29 01:42:25;;;;;;;6.73;5.50;;;6.20;99.90;;;;;;5020632;28;20453;-86
2023/11/29 01:44:51;;;;;;;6.60;5.70;;;6.70;99.90;;;;;;5002271;28;20500;-87
2023/11/29 01:47:20;;;;;;;7.67;5.67;;;6.10;99.90;;;;;;5019992;28;20798;-86
2023/11/29 01:49:46;;;;;;;7.27;5.87;;;6.10;99.90;;;;;;5013599;28;20571;-87
2023/11/29 01:52:14;;;;;;;7.23;6.50;;;6.10;99.90;;;;;;5000275;28;20905;-86
2023/11/29 01:54:41;;;;;;;8.57;6.17;;;6.80;99.90;;;;;;5020284;28;20515;-86
2023/11/29 01:57:07;;;;;;;6.73;5.70;;;6.30;99.90;;;;;;4991873;28;20502;-86
2023/11/29 01:59:34;;;;;;;6.70;5.97;;;6.10;99.90;;;;;;5007363;28;20466;-85
2023/11/29 02:02:01;;;;;;;5.83;5.13;;;6.00;99.90;;;;;;5019673;28;20431;-86
2023/11/29 02:04:29;;;;;;;6.73;5.40;;;6.30;99.90;;;;;;5003467;28;20441;-87
2023/11/29 02:06:55;;;;;;;7.65;5.88;;;6.00;99.90;;;;;;5019795;28;20545;-86
2023/11/29 02:09:21;;;;;;;6.70;6.00;;;6.00;99.90;;;;;;5019113;28;20306;-85
2023/11/29 02:11:50;;;;;;;7.93;5.33;;;6.20;99.90;;;;;;5019534;28;20446;-86
2023/11/29 02:14:16;;;;;;;6.73;5.30;;;6.90;99.90;;;;;;4999814;28;20449;-86
2023/11/29 02:16:42;;;;;;;6.73;6.07;;;6.00;99.90;;;;;;5019000;28;20437;-85
2023/11/29 02:19:08;;;;;;;7.25;5.85;;;6.60;99.90;;;;;;5015962;28;20463;-85
2023/11/29 02:21:34;;;;;;;6.70;5.20;;;6.10;99.90;;;;;;4999614;28;20183;-86
2023/11/29 02:24:39;;;;;;;6.73;5.37;;;6.10;99.90;;;;;;5019131;28;20436;-87
2023/11/29 02:27:05;;;;;;;5.97;4.70;;;6.10;99.90;;;;;;5019767;28;20509;-86
2023/11/29 02:29:31;;;;;;;6.10;5.20;;;6.00;99.90;;;;;;5016250;28;20555;-86
2023/11/29 02:32:00;;;;;;;5.57;5.07;;;6.10;99.90;;;;;;5002619;28;21022;-87
2023/11/29 02:34:26;;;;;;;5.77;5.20;;;6.80;99.90;;;;;;4995248;28;20437;-87
2023/11/29 02:36:56;;;;;;;5.93;5.33;;;6.10;99.90;;;;;;5039400;28;20425;-86
2023/11/29 02:39:24;;;;;;;8.30;5.82;;;6.40;99.90;;;;;;5031762;28;20810;-86
2023/11/29 02:41:50;;;;;;;6.85;5.70;;;6.00;99.90;;;;;;5007799;28;20196;-85
2023/11/29 02:44:16;;;;;;;6.97;5.43;;;6.10;99.90;;;;;;5019945;28;20213;-86
2023/11/29 02:46:42;;;;;;;6.57;5.43;;;6.10;99.90;;;;;;5000309;28;20202;-86
2023/11/29 02:49:08;;;;;;;6.00;5.23;;;6.10;99.90;;;;;;5003921;28;20489;-86
2023/11/29 02:51:34;;;;;;;5.80;5.20;;;6.10;99.90;;;;;;5017486;28;20463;-87
2023/11/29 02:54:02;;;;;;;6.47;5.40;;;6.00;99.90;;;;;;5006482;28;20426;-85
2023/11/29 02:56:28;;;;;;;6.90;5.90;;;6.10;99.90;;;;;;5006011;28;20191;-86
2023/11/29 02:58:57;;;;;;;7.93;5.80;;;6.90;99.90;;;;;;5003892;28;20765;-86
2023/11/29 03:01:23;;;;;;;8.73;5.70;;;6.00;99.90;;;;;;5002920;28;20474;-86
2023/11/29 03:03:51;;;;;;;6.70;5.40;;;6.80;99.90;;;;;;5002750;28;20492;-86
2023/11/29 03:06:17;;;;;;;9.60;7.10;;;6.10;99.90;;;;;;5037196;28;20223;-85
2023/11/29 03:08:42;;;;;;;7.10;6.10;;;6.10;99.90;;;;;;5039500;28;20469;-86
2023/11/29 03:11:08;;;;;;;7.30;6.00;;;6.50;99.90;;;;;;5019020;28;20218;-85
2023/11/29 03:13:34;;;;;;;7.23;5.77;;;7.20;99.90;;;;;;5018933;28;20567;-86
2023/11/29 03:16:02;;;;;;;6.00;5.20;;;6.70;99.90;;;;;;5034515;28;20439;-86
2023/11/29 03:18:33;;;;;;;7.13;5.93;;;6.00;99.90;;;;;;5005739;28;20456;-85
2023/11/29 03:21:01;;;;;;;7.50;6.10;;;6.00;99.90;;;;;;5038308;28;20406;-86
2023/11/29 03:23:27;;;;;;;6.90;5.70;;;6.10;99.90;;;;;;5022682;28;20475;-86
2023/11/29 03:25:53;;;;;;;6.17;5.40;;;6.20;99.90;;;;;;5022389;28;20452;-86
2023/11/29 03:28:19;;;;;;;6.30;5.70;;;5.90;99.90;;;;;;5022533;28;20485;-86
2023/11/29 03:30:45;;;;;;;6.87;5.50;;;6.00;99.90;;;;;;5022101;28;20296;-86
2023/11/29 03:33:11;;;;;;;8.60;5.67;;;6.10;99.90;;;;;;5022226;28;20456;-86
2023/11/29 03:35:37;;;;;;;7.40;5.90;;;6.50;99.90;;;;;;5022182;28;20216;-85
2023/11/29 03:38:03;;;;;;;6.68;5.95;;;5.90;99.90;;;;;;5022172;28;20437;-86
2023/11/29 03:40:28;;;;;;;7.07;5.80;;;6.10;99.90;;;;;;5022507;28;20194;-85
2023/11/29 03:42:54;;;;;;;6.17;5.23;;;6.80;99.90;;;;;;5056062;28;20194;-85
2023/11/29 03:45:20;;;;;;;6.80;5.57;;;7.00;99.90;;;;;;5018746;28;20500;-85
2023/11/29 03:47:48;;;;;;;6.23;5.63;;;6.40;99.90;;;;;;5022202;28;20193;-85
2023/11/29 03:50:14;;;;;;;7.00;6.30;;;7.60;99.90;;;;;;5000804;28;20438;-86
2023/11/29 03:52:41;;;;;;;8.57;6.05;;;6.00;99.90;;;;;;5001990;28;21150;-85
2023/11/29 03:55:07;;;;;;;8.67;6.37;;;7.00;99.90;;;;;;4998599;28;20210;-85
2023/11/29 03:57:34;;;;;;;7.57;5.70;;;6.20;99.90;;;;;;5021513;28;20504;-86
2023/11/29 04:00:00;;;;;;;8.00;5.77;;;6.10;99.90;;;;;;5005619;28;21490;-86
2023/11/29 04:02:26;;;;;;;6.67;5.50;;;6.20;99.90;;;;;;5021570;28;20454;-87
2023/11/29 04:04:52;;;;;;;6.30;5.70;;;6.30;99.90;;;;;;5021758;28;20540;-86
2023/11/29 04:07:20;;;;;;;7.43;6.13;;;6.10;99.90;;;;;;5005406;28;20422;-87
2023/11/29 04:09:46;;;;;;;6.37;5.27;;;6.60;99.90;;;;;;5005653;28;20571;-87
2023/11/29 04:12:12;;;;;;;8.57;6.60;;;6.10;99.90;;;;;;5005635;28;21092;-87
2023/11/29 04:14:39;;;;;;;6.78;5.55;;;6.90;99.90;;;;;;5002359;28;20453;-88
2023/11/29 04:17:08;;;;;;;7.13;5.80;;;6.10;99.90;;;;;;5022500;28;20215;-87
2023/11/29 04:19:34;;;;;;;7.80;6.43;;;6.50;99.90;;;;;;4989854;28;20508;-82
2023/11/29 04:21:59;;;;;;;7.70;6.10;;;6.10;99.90;;;;;;5017314;28;20222;-82
2023/11/29 04:24:29;;;;;;;6.90;5.80;;;6.50;99.90;;;;;;4998315;28;20901;-83
2023/11/29 04:26:54;;;;;;;7.47;6.03;;;5.90;99.90;;;;;;5000659;28;20461;-82
2023/11/29 04:29:21;;;;;;;9.98;6.18;;;6.00;99.90;;;;;;5017896;28;20306;-80
2023/11/29 04:31:47;;;;;;;7.13;5.80;;;6.60;99.90;;;;;;4992933;28;20247;-85
2023/11/29 04:34:15;;;;;;;7.75;6.15;;;6.00;99.90;;;;;;5024085;28;20462;-81
2023/11/29 04:36:46;;;;;;;7.60;5.40;;;6.10;99.90;;;;;;5014694;28;20248;-81
2023/11/29 04:39:18;;;;;;;8.60;7.13;;;6.00;99.90;;;;;;5000189;28;20443;-81
2023/11/29 04:41:44;;;;;;;7.03;6.23;;;6.00;99.90;;;;;;5017739;28;20452;-81
2023/11/29 04:44:15;;;;;;;7.68;6.50;;;6.00;99.90;;;;;;5034040;28;20414;-81
2023/11/29 04:46:44;;;;;;;7.70;6.93;;;6.10;99.90;;;;;;5017036;28;20649;-81
2023/11/29 04:49:10;;;;;;;7.73;6.33;;;6.20;99.90;;;;;;5013510;28;20471;-81
2023/11/29 04:51:38;;;;;;;10.57;6.80;;;6.50;99.90;;;;;;5031419;28;20440;-80
2023/11/29 04:54:07;;;;;;;7.83;6.00;;;6.50;99.90;;;;;;5031149;28;20271;-81
2023/11/29 04:56:33;;;;;;;9.93;6.50;;;6.40;99.90;;;;;;5029564;28;20549;-82
2023/11/29 04:59:01;;;;;;;10.63;6.73;;;6.00;99.90;;;;;;4993169;28;21301;-82
2023/11/29 05:01:27;;;;;;;8.90;6.50;;;6.20;99.90;;;;;;5014025;28;20428;-81
2023/11/29 05:03:53;;;;;;;8.03;7.20;;;6.80;99.90;;;;;;5010452;28;20438;-81
2023/11/29 05:06:20;;;;;;;10.47;6.83;;;6.40;99.90;;;;;;4986452;28;20293;-81
2023/11/29 05:08:48;;;;;;;8.70;6.53;;;6.10;99.90;;;;;;4975403;28;20480;-80
2023/11/29 05:11:17;;;;;;;8.70;7.05;;;5.90;99.90;;;;;;4973020;28;20311;-81
2023/11/29 05:13:45;;;;;;;10.27;6.97;;;6.20;99.90;;;;;;5024833;28;20207;-79
2023/11/29 05:16:11;;;;;;;7.97;6.93;;;6.00;99.90;;;;;;5030750;28;20188;-81
2023/11/29 05:18:39;;;;;;;8.43;7.47;;;6.50;99.90;;;;;;5010131;28;20437;-81
2023/11/29 05:21:06;;;;;;;8.03;6.93;;;6.10;99.90;;;;;;5031763;28;20181;-81
2023/11/29 05:23:34;;;;;;;8.67;6.77;;;6.10;99.90;;;;;;4979491;28;20453;-82
2023/11/29 05:26:02;;;;;;;10.37;7.13;;;6.10;99.90;;;;;;5012064;28;20428;-82
2023/11/29 05:28:31;;;;;;;8.68;7.10;;;6.30;99.90;;;;;;5020650;28;20478;-82
2023/11/29 05:30:56;;;;;;;9.80;7.40;;;6.00;99.90;;;;;;5022576;28;20706;-82
2023/11/29 05:33:25;;;;;;;9.63;7.50;;;6.10;99.90;;;;;;5017766;28;20203;-81
2023/11/29 05:35:53;;;;;;;8.90;7.57;;;6.00;99.90;;;;;;5014374;28;20285;-81
2023/11/29 05:38:21;;;;;;;15.77;7.20;;;5.90;99.90;;;;;;4997526;28;20447;-82
2023/11/29 05:40:47;;;;;;;8.20;7.10;;;6.00;99.90;;;;;;5017325;28;20453;-81
2023/11/29 05:43:15;;;;;;;11.13;6.47;;;6.00;99.90;;;;;;4999680;28;20224;-81
2023/11/29 05:45:44;;;;;;;9.03;7.60;;;5.90;99.90;;;;;;5020219;28;20468;-81
2023/11/29 05:48:10;;;;;;;9.23;6.53;;;6.20;99.90;;;;;;4998192;28;20463;-82
2023/11/29 05:50:39;;;;;;;8.23;7.13;;;6.20;99.90;;;;;;5009908;28;20460;-81
2023/11/29 05:53:10;;;;;;;8.70;6.85;;;6.00;99.90;;;;;;5018646;28;20207;-82
2023/11/29 05:55:36;;;;;;;8.00;7.10;;;5.90;99.90;;;;;;4996987;28;20626;-81
2023/11/29 05:58:05;;;;;;;8.70;7.07;;;5.90;99.90;;;;;;5051958;28;20440;-82
2023/11/29 06:00:31;;;;;;;10.88;8.10;;;6.00;99.90;;;;;;5021312;28;20762;-81
2023/11/29 06:02:59;;;;;;;12.57;8.30;;;6.00;99.90;;;;;;5035814;28;20199;-82
2023/11/29 06:05:27;;;;;;;11.23;7.83;;;6.20;99.90;;;;;;5050613;28;20451;-82
2023/11/29 06:07:56;;;;;;;10.70;7.68;;;5.90;99.90;;;;;;5041185;28;20434;-81
2023/11/29 06:10:22;;;;;;;10.98;8.35;;;5.90;99.90;;;;;;5054813;28;20250;-81
2023/11/29 06:12:48;;;;;;;8.90;8.00;;;5.90;99.90;;;;;;5020445;28;20186;-81
2023/11/29 06:15:38;;;;;;;17.17;8.02;;;5.90;99.90;;;;;;5057697;28;20431;-81
2023/11/29 06:18:05;;;;;;;13.03;9.03;;;5.90;99.90;;;;;;5029772;28;20291;-84
2023/11/29 06:20:38;;;;;;;10.10;7.53;;;6.50;99.90;;;;;;5029703;28;20445;-82
2023/11/29 06:23:07;;;;;;;14.60;9.37;;;6.00;99.90;;;;;;4999988;28;20560;-83
2023/11/29 06:25:35;;;;;;;12.07;8.40;;;5.90;99.90;;;;;;5046478;28;20805;-84
2023/11/29 06:28:01;;;;;;;11.63;8.33;;;5.90;99.90;;;;;;5006105;28;20200;-84
2023/11/29 06:30:29;;;;;;;10.85;7.85;;;5.90;99.90;;;;;;5045813;28;20438;-83
2023/11/29 06:32:57;;;;;;;13.07;8.98;;;6.30;99.90;;;;;;4991817;28;20208;-83
2023/11/29 06:35:26;;;;;;;10.67;8.27;;;5.90;99.90;;;;;;4990648;28;20246;-83
2023/11/29 06:37:52;;;;;;;9.05;8.05;;;6.10;99.90;;;;;;5044348;28;20444;-83
2023/11/29 06:40:18;;;;;;;11.17;7.63;;;5.90;99.90;;;;;;5046663;28;20212;-83
2023/11/29 06:42:43;;;;;;;12.10;9.10;;;6.00;99.90;;;;;;5000150;28;20225;-84
2023/11/29 06:45:12;;;;;;;12.82;8.05;;;6.00;99.90;;;;;;5009167;28;20522;-82
2023/11/29 06:47:38;;;;;;;12.83;8.53;;;6.00;99.90;;;;;;5016563;28;20296;-83
2023/11/29 06:50:05;;;;;;;12.70;7.90;;;5.90;99.90;;;;;;5045948;28;20571;-84
2023/11/29 06:52:32;;;;;;;8.63;7.63;;;5.90;99.90;;;;;;5008121;28;20567;-84
2023/11/29 06:54:59;;;;;;;11.57;8.00;;;6.30;99.90;;;;;;5007652;28;20190;-83
2023/11/29 06:57:24;;;;;;;9.13;7.90;;;5.90;99.90;;;;;;5048183;28;20438;-83
2023/11/29 06:59:50;;;;;;;8.57;7.17;;;5.90;99.90;;;;;;5046987;28;20529;-83
2023/11/29 07:02:16;;;;;;;11.83;8.10;;;5.80;99.90;;;;;;5021582;28;20934;-83
2023/11/29 07:04:48;;;;;;;12.77;8.77;;;5.90;99.90;;;;;;5035402;28;20448;-84
2023/11/29 07:07:16;;;;;;;12.02;7.43;;;5.90;99.90;;;;;;5030721;28;20516;-83
2023/11/29 07:09:42;;;;;;;12.83;9.67;;;5.90;99.90;;;;;;5048636;28;20322;-82
2023/11/29 07:12:08;;;;;;;9.50;7.00;;;5.90;99.90;;;;;;5027221;28;20236;-81
2023/11/29 07:14:34;;;;;;;10.77;7.50;;;5.90;99.90;;;;;;5022394;28;20493;-83
2023/11/29 07:17:00;;;;;;;9.98;7.72;;;5.90;99.90;;;;;;5056324;28;20453;-86
2023/11/29 07:19:29;;;;;;;14.83;8.20;;;5.90;99.90;;;;;;5045526;28;20206;-85
2023/11/29 07:21:57;;;;;;;11.83;8.33;;;6.10;99.90;;;;;;5016927;28;20203;-87
2023/11/29 07:24:23;;;;;;;8.95;6.75;;;6.10;99.90;;;;;;5021440;28;20553;-86
2023/11/29 07:26:49;;;;;;;9.03;7.83;;;6.00;99.90;;;;;;5033630;28;20617;-85
2023/11/29 07:29:14;;;;;;;10.00;8.03;;;6.00;99.90;;;;;;5005663;28;20473;-86
2023/11/29 07:31:47;;;;;;;8.77;7.50;;;5.90;99.90;;;;;;5007092;28;20509;-86
2023/11/29 07:34:13;;;;;;;8.20;7.33;;;5.90;99.90;;;;;;5031784;28;20436;-87
2023/11/29 07:36:51;;;;;;;12.10;7.03;;;5.90;99.90;;;;;;5021555;28;20468;-85
2023/11/29 07:39:18;;;;;;;10.20;7.83;;;6.10;99.90;;;;;;5052141;28;20249;-88
2023/11/29 07:41:45;;;;;;;10.60;6.43;;;5.90;99.90;;;;;;5016278;28;21150;-88
2023/11/29 07:44:21;;;;;;;10.50;7.30;;;5.90;99.90;;;;;;5005711;28;20439;-88
2023/11/29 07:46:50;;;;;;;8.87;7.10;;;6.00;99.90;;;;;;5053825;28;20870;-86
2023/11/29 07:49:18;;;;;;;10.18;6.72;;;6.40;99.90;;;;;;5035598;28;20886;-86
2023/11/29 07:51:44;;;;;;;8.90;7.03;;;5.90;99.90;;;;;;5007111;28;20196;-87
2023/11/29 07:54:13;;;;;;;8.03;6.53;;;6.00;99.90;;;;;;5011585;28;20216;-84
2023/11/29 07:56:42;;;;;;;9.50;6.50;;;6.00;99.90;;;;;;5020825;28;20497;-91
2023/11/29 07:59:09;;;;;;;8.88;6.00;;;6.10;99.90;;;;;;5011034;28;20436;-88
2023/11/29 08:01:38;;;;;;;8.27;6.68;;;6.00;99.90;;;;;;4993118;28;20197;-87
2023/11/29 08:04:04;;;;;;;7.03;6.33;;;6.70;99.90;;;;;;5042289;28;20201;-89
2023/11/29 08:06:31;;;;;;;9.20;7.00;;;6.10;99.90;;;;;;5012535;28;20460;-88
2023/11/29 08:08:57;;;;;;;8.17;6.27;;;6.70;99.90;;;;;;5000651;28;20472;-88
2023/11/29 08:11:24;;;;;;;7.83;6.27;;;6.20;99.90;;;;;;5020955;28;20416;-94
2023/11/29 08:13:50;;;;;;;10.38;6.22;;;6.00;99.90;;;;;;5016882;28;20809;-93
2023/11/29 08:16:16;;;;;;;7.20;6.38;;;6.40;99.90;;;;;;5013039;28;20204;-90
2023/11/29 08:18:43;;;;;;;9.53;6.00;;;6.00;99.90;;;;;;5021161;28;20185;-91
2023/11/29 08:21:09;;;;;;;7.17;5.60;;;6.00;99.90;;;;;;5003099;28;20448;-88
2023/11/29 08:23:35;;;;;;;9.70;6.10;;;6.40;99.90;;;;;;4992112;28;20434;-90
2023/11/29 08:26:01;;;;;;;8.93;6.43;;;6.60;99.90;;;;;;4999337;28;20468;-86
2023/11/29 08:28:27;;;;;;;6.77;5.77;;;6.00;99.90;;;;;;4995383;28;20222;-85
2023/11/29 08:30:53;;;;;;;6.53;5.60;;;6.70;99.90;;;;;;5002749;28;20510;-88
2023/11/29 08:33:19;;;;;;;6.20;5.50;;;6.60;99.90;;;;;;5014413;28;20503;-86
2023/11/29 08:35:47;;;;;;;6.97;5.83;;;6.50;99.90;;;;;;4979250;28;20463;-85
2023/11/29 08:38:13;;;;;;;6.10;5.50;;;6.00;99.90;;;;;;5016761;28;20491;-91
2023/11/29 08:40:42;;;;;;;6.35;5.22;;;6.00;99.90;;;;;;5006496;28;20432;-88
2023/11/29 08:43:12;;;;;;;6.00;5.40;;;6.40;99.90;;;;;;4979503;28;20285;-87
2023/11/29 08:45:41;;;;;;;6.20;5.60;;;6.00;99.90;;;;;;4997543;28;20439;-88
2023/11/29 08:48:07;;;;;;;6.70;5.70;;;6.10;99.90;;;;;;5018386;28;20972;-85
2023/11/29 08:50:33;;;;;;;5.50;5.00;;;6.20;99.90;;;;;;5025846;28;20193;-87
2023/11/29 08:53:02;;;;;;;5.33;4.80;;;5.20;99.90;;;;;;4994793;28;20915;-87
2023/11/29 08:55:31;;;;;;;5.87;5.27;;;5.90;99.90;;;;;;5028285;28;20452;-84
2023/11/29 08:57:57;;;;;;;6.65;5.20;;;5.90;99.90;;;;;;4996289;28;20444;-87
2023/11/29 09:00:23;;;;;;;8.90;4.97;;;6.00;99.90;;;;;;5014044;28;20194;-89
2023/11/29 09:02:49;;;;;;;7.00;6.20;;;6.20;99.90;;;;;;5012106;28;20505;-87
2023/11/29 09:05:17;;;;;;;5.25;4.68;;;6.10;99.90;;;;;;4981575;28;20209;-85
2023/11/29 09:07:43;;;;;;;6.57;5.20;;;6.10;99.90;;;;;;5011702;28;20929;-88
2023/11/29 09:10:10;;;;;;;5.82;4.90;;;6.20;99.90;;;;;;4990554;28;20468;-87
2023/11/29 09:12:37;;;;;;;9.00;5.37;;;6.10;99.90;;;;;;4967769;28;20343;-90
2023/11/29 09:15:05;;;;;;;7.70;5.53;;;6.10;99.90;;;;;;5016178;28;20486;-86
2023/11/29 09:17:32;;;;;;;7.40;5.47;;;6.10;99.90;;;;;;4999325;28;20491;-87
2023/11/29 09:19:58;;;;;;;6.60;5.43;;;6.20;99.90;;;;;;4985534;28;20873;-88
2023/11/29 09:22:25;;;;;;;6.90;5.10;;;6.10;99.90;;;;;;4991974;28;20468;-87
2023/11/29 09:24:51;;;;;;;6.00;4.90;;;6.50;99.90;;;;;;5010726;28;20441;-89
2023/11/29 09:27:17;;;;;;;5.47;4.97;;;6.00;99.90;;;;;;5005836;28;20437;-87
2023/11/29 09:29:44;;;;;;;7.20;4.97;;;6.00;99.90;;;;;;4995241;28;20498;-86
2023/11/29 09:32:10;;;;;;;5.20;4.70;;;6.10;99.90;;;;;;5024509;23;20264;-41
2023/11/29 09:34:36;;;;;;;5.67;4.90;;;6.00;99.90;;;;;;5005393;28;20460;-30
2023/11/29 09:37:02;;;;;;;6.70;4.80;;;6.00;99.90;;;;;;5009607;28;20832;-38
2023/11/29 09:39:31;;;;;;;7.07;4.88;;;6.00;99.90;;;;;;5008387;28;20439;-33
2023/11/29 09:42:02;;;;;;;5.63;5.10;;;6.00;99.90;;;;;;5006383;28;20697;-33
2023/11/29 09:44:30;;;;;;;5.10;4.70;;;6.00;99.90;;;;;;5002939;28;20483;-31
2023/11/29 09:47:00;;;;;;;5.13;4.63;;;6.20;99.90;;;;;;5015881;28;20197;-31
2023/11/29 09:49:28;;;;;;;7.30;4.95;;;6.10;99.90;;;;;;5009472;28;20583;-34
2023/11/29 09:51:56;;;;;;;4.93;4.50;;;6.10;99.90;;;;;;4985532;28;20213;-36
2023/11/29 09:54:24;;;;;;;4.95;4.38;;;6.10;99.90;;;;;;5003801;28;20228;-36
2023/11/29 09:56:51;;;;;;;7.07;4.22;;;6.10;99.90;;;;;;5004775;28;20258;-35
2023/11/29 09:59:21;;;;;;;5.60;4.87;;;6.20;99.90;;;;;;5004197;28;20597;-38
2023/11/29 10:01:54;;;;;;;6.40;5.27;;;6.10;99.90;;;;;;5013337;28;20517;-38
2023/11/29 10:04:20;;;;;;;4.90;4.43;;;6.10;99.90;;;;;;4992508;28;20907;-34
2023/11/29 10:06:46;;;;;;;5.57;4.33;;;6.10;99.90;;;;;;5016777;28;20431;-32
2023/11/29 10:09:16;;;;;;;6.20;4.47;;;6.20;99.90;;;;;;5012328;28;20478;-33
2023/11/29 10:11:47;;;;;;;5.30;4.17;;;6.10;99.90;;;;;;5009799;28;20461;-35
2023/11/29 10:14:16;;;;;;;6.72;5.07;;;6.10;99.90;;;;;;5009873;28;20443;-33
2023/11/29 10:16:42;;;;;;;4.97;4.50;;;6.10;99.90;;;;;;5019080;28;20193;-35
2023/11/29 10:19:11;;;;;;;7.60;4.90;;;6.10;99.90;;;;;;5014333;28;20511;-36
2023/11/29 10:21:43;;;;;;;5.20;4.80;;;6.10;99.90;;;;;;5019161;28;20419;-36
2023/11/29 10:24:09;;;;;;;5.05;4.40;;;6.10;99.90;;;;;;5008547;28;20523;-36
2023/11/29 10:26:36;;;;;;;6.07;4.53;;;6.10;99.90;;;;;;5006448;28;20210;-32
2023/11/29 10:29:09;;;;;;;5.10;4.60;;;6.10;99.90;;;;;;5002313;28;20473;-37
2023/11/29 10:31:38;;;;;;;5.20;4.70;;;6.10;99.90;;;;;;5014509;28;20469;-34
2023/11/29 10:34:04;;;;;;;4.87;4.37;;;6.10;99.90;;;;;;5035472;28;20774;-36
2023/11/29 10:36:31;;;;;;;5.13;4.60;;;6.10;99.90;;;;;;5014831;28;20574;-35
2023/11/29 10:39:12;;;;;;;4.80;4.37;;;6.10;99.90;;;;;;5011548;28;20450;-33
2023/11/29 10:41:55;;;;;;;5.32;3.92;;;6.10;99.90;;;;;;5033567;28;20932;-34
2023/11/29 10:44:28;;;;;;;6.10;4.17;;;6.10;99.90;;;;;;5019519;28;20300;-35
2023/11/29 10:47:05;;;;;;;5.37;4.27;;;6.10;99.90;;;;;;5038169;28;20517;-29
2023/11/29 10:49:47;;;;;;;5.60;5.10;;;6.10;99.90;;;;;;5033943;28;20587;-34
2023/11/29 10:52:15;;;;;;;6.00;4.30;;;6.10;99.90;;;;;;5030980;28;20266;-36
2023/11/29 10:54:43;;;;;;;5.60;4.50;;;6.10;99.90;;;;;;5037202;28;20517;-35
2023/11/29 10:57:13;;;;;;;5.53;4.90;;;6.10;99.90;;;;;;4998091;28;20436;-36
2023/11/29 10:59:51;;;;;;;4.77;4.47;;;6.10;99.90;;;;;;5038105;28;20970;-35
2023/11/29 11:02:17;;;;;;;5.10;4.40;;;6.10;99.90;;;;;;5017233;28;20448;-35
2023/11/29 11:05:00;;;;;;;4.88;4.00;;;6.10;99.90;;;;;;5006885;28;20505;-36
2023/11/29 11:07:46;;;;;;;4.57;4.20;;;6.10;99.90;;;;;;5027085;28;20209;-35
2023/11/29 11:10:23;;;;;;;4.30;3.50;;;6.10;99.90;;;;;;5040168;28;20223;-35
2023/11/29 11:12:50;;;;;;;4.68;4.28;;;6.10;99.90;;;;;;5015487;28;21012;-39
2023/11/29 11:15:24;;;;;;;4.03;3.33;;;6.10;99.90;;;;;;5038172;28;20267;-39
2023/11/29 11:18:01;;;;;;;4.22;3.92;;;6.20;99.90;;;;;;5028095;28;20431;-36
2023/11/29 11:20:40;;;;;;;4.30;3.90;;;6.20;99.90;;;;;;5019152;28;20206;-36
2023/11/29 11:23:06;;;;;;;3.97;3.60;;;6.20;99.90;;;;;;5029556;28;20472;-36
2023/11/29 11:25:34;;;;;;;3.58;3.28;;;6.30;99.90;;;;;;5031621;28;20988;-35
2023/11/29 11:28:00;;;;;;;3.63;3.33;;;6.30;99.90;;;;;;5032158;28;20276;-29
2023/11/29 11:30:31;;;;;;;4.00;3.60;;;6.30;99.90;;;;;;5038511;28;21000;-35
2023/11/29 11:32:58;;;;;;;3.78;3.47;;;6.30;99.90;;;;;;5012671;28;20449;-36
2023/11/29 11:35:32;;;;;;;3.30;3.00;;;6.30;99.90;;;;;;5028573;28;20205;-38
2023/11/29 11:38:04;;;;;;;4.43;3.43;;;6.30;99.90;;;;;;5019331;28;21288;-33
2023/11/29 11:40:35;;;;;;;4.40;3.23;;;6.30;99.90;;;;;;5024988;28;20515;-35
2023/11/29 11:43:01;;;;;;;3.97;2.97;;;6.20;99.90;;;;;;5040812;28;20475;-37
2023/11/29 11:45:31;;;;;;;4.90;3.27;;;6.20;99.90;;;;;;5019359;28;20439;-33
2023/11/29 11:48:01;;;;;;;3.67;3.30;;;6.20;99.90;;;;;;5014831;28;20922;-35
2023/11/29 11:50:27;;;;;;;3.50;3.17;;;6.20;99.90;;;;;;5036279;28;21391;-32
2023/11/29 11:53:00;;;;;;;3.00;2.73;;;6.20;99.90;;;;;;5032258;28;20281;-34
2023/11/29 11:55:30;;;;;;;3.70;3.28;;;6.20;99.90;;;;;;4996601;28;20493;-33
2023/11/29 11:57:59;;;;;;;3.10;2.90;;;6.20;99.90;;;;;;5039088;28;20241;-34
2023/11/29 12:00:27;;;;;;;3.23;2.60;;;6.20;99.90;;;;;;5037309;28;20556;-35
2023/11/29 12:02:54;;;;;;;3.50;3.17;;;6.30;99.90;;;;;;5038943;28;20461;-34
2023/11/29 12:05:21;;;;;;;2.90;2.70;;;6.30;99.90;;;;;;5015479;28;21083;-34
2023/11/29 12:07:48;;;;;;;3.37;3.07;;;6.30;99.90;;;;;;5017377;28;21209;-39
2023/11/29 12:10:16;;;;;;;3.27;2.97;;;6.30;99.90;;;;;;5037752;28;20521;-37
2023/11/29 12:12:44;;;;;;;2.67;2.47;;;6.30;99.90;;;;;;5041218;28;20447;-31
2023/11/29 12:15:15;;;;;;;4.03;3.27;;;6.30;99.90;;;;;;5034547;28;20480;-34
2023/11/29 12:17:43;;;;;;;3.20;2.90;;;6.30;99.90;;;;;;5041444;28;20428;-38
2023/11/29 12:20:11;;;;;;;2.87;2.67;;;6.30;99.90;;;;;;5037079;28;20504;-35
2023/11/29 12:22:45;;;;;;;3.47;3.17;;;6.30;99.90;;;;;;5016896;28;20781;-35
2023/11/29 12:25:14;;;;;;;3.80;3.40;;;6.30;99.90;;;;;;5015350;28;20427;-34
2023/11/29 12:27:45;;;;;;;3.43;3.13;;;6.30;99.90;;;;;;5025253;28;20518;-32
2023/11/29 12:30:11;;;;;;;4.25;3.85;;;6.20;99.90;;;;;;5026541;28;20464;-33
2023/11/29 12:32:38;;;;;;;4.00;3.17;;;6.20;99.90;;;;;;5038519;28;20203;-32
2023/11/29 12:35:06;;;;;;;4.40;3.80;;;6.30;99.90;;;;;;5017407;28;21271;-33
2023/11/29 12:37:33;;;;;;;3.27;3.07;;;6.30;99.90;;;;;;5024474;28;20445;-38
2023/11/29 12:39:59;;;;;;;3.83;3.00;;;6.30;99.90;;;;;;5018694;28;20444;-37
2023/11/29 12:42:28;;;;;;;4.00;3.20;;;6.30;99.90;;;;;;5039471;28;20445;-35
2023/11/29 12:44:54;;;;;;;5.70;3.23;;;6.20;99.90;;;;;;5021313;28;20610;-31
2023/11/29 12:47:21;;;;;;;3.10;2.80;;;6.20;99.90;;;;;;5001232;28;20795;-30
2023/11/29 12:49:48;;;;;;;3.50;3.20;;;6.30;99.90;;;;;;5019555;28;20467;-33
2023/11/29 12:52:14;;;;;;;3.50;2.83;;;6.30;99.90;;;;;;5024271;28;20444;-36
2023/11/29 12:54:40;;;;;;;3.37;3.07;;;6.30;99.90;;;;;;5022721;28;20912;-36
2023/11/29 12:57:06;;;;;;;3.93;3.20;;;6.30;99.90;;;;;;5035684;28;20460;-33
2023/11/29 12:59:33;;;;;;;3.17;2.87;;;6.30;99.90;;;;;;5032798;22;20509;-29